sensor_id;sensor_type;location;lat;lon;timestamp;P1;durP1;ratioP1;P2;durP2;ratioP2
34805;SDS011;65084;42.196;25.326;2023-02-03T00:00:46;3.90;;;2.85;;
34805;SDS011;65084;42.196;25.326;2023-02-03T00:03:13;3.38;;;2.80;;
34805;SDS011;65084;42.196;25.326;2023-02-03T00:05:40;2.92;;;2.22;;
34805;SDS011;65084;42.196;25.326;2023-02-03T00:08:08;2.92;;;1.90;;
34805;SDS011;65084;42.196;25.326;2023-02-03T00:10:36;4.03;;;2.20;;
34805;SDS011;65084;42.196;25.326;2023-02-03T00:13:06;2.35;;;1.92;;
34805;SDS011;65084;42.196;25.326;2023-02-03T00:15:33;3.75;;;2.03;;
34805;SDS011;65084;42.196;25.326;2023-02-03T00:18:01;2.28;;;2.03;;
34805;SDS011;65084;42.196;25.326;2023-02-03T00:20:28;3.08;;;2.30;;
34805;SDS011;65084;42.196;25.326;2023-02-03T00:23:01;3.80;;;2.33;;
34805;SDS011;65084;42.196;25.326;2023-02-03T00:25:28;2.20;;;1.73;;
34805;SDS011;65084;42.196;25.326;2023-02-03T00:27:56;4.05;;;2.15;;
34805;SDS011;65084;42.196;25.326;2023-02-03T00:30:24;2.45;;;1.92;;
34805;SDS011;65084;42.196;25.326;2023-02-03T00:32:52;4.43;;;2.33;;
34805;SDS011;65084;42.196;25.326;2023-02-03T00:35:19;2.47;;;2.20;;
34805;SDS011;65084;42.196;25.326;2023-02-03T00:37:49;2.28;;;2.08;;
34805;SDS011;65084;42.196;25.326;2023-02-03T00:40:17;3.28;;;2.00;;
34805;SDS011;65084;42.196;25.326;2023-02-03T00:42:45;6.00;;;1.92;;
34805;SDS011;65084;42.196;25.326;2023-02-03T00:45:12;3.33;;;2.38;;
34805;SDS011;65084;42.196;25.326;2023-02-03T00:47:41;2.20;;;1.92;;
34805;SDS011;65084;42.196;25.326;2023-02-03T00:50:08;2.22;;;2.03;;
34805;SDS011;65084;42.196;25.326;2023-02-03T00:52:36;5.70;;;2.65;;
34805;SDS011;65084;42.196;25.326;2023-02-03T00:55:03;4.43;;;2.78;;
34805;SDS011;65084;42.196;25.326;2023-02-03T00:57:31;3.20;;;2.38;;
34805;SDS011;65084;42.196;25.326;2023-02-03T00:59:58;2.92;;;2.38;;
34805;SDS011;65084;42.196;25.326;2023-02-03T01:02:25;2.58;;;2.38;;
34805;SDS011;65084;42.196;25.326;2023-02-03T01:04:54;3.25;;;2.10;;
34805;SDS011;65084;42.196;25.326;2023-02-03T01:07:21;3.45;;;2.42;;
34805;SDS011;65084;42.196;25.326;2023-02-03T01:09:48;3.72;;;1.90;;
34805;SDS011;65084;42.196;25.326;2023-02-03T01:12:16;2.70;;;1.95;;
34805;SDS011;65084;42.196;25.326;2023-02-03T01:14:43;4.60;;;1.90;;
34805;SDS011;65084;42.196;25.326;2023-02-03T01:17:10;2.25;;;1.92;;
34805;SDS011;65084;42.196;25.326;2023-02-03T01:19:38;2.60;;;1.73;;
34805;SDS011;65084;42.196;25.326;2023-02-03T01:22:06;3.63;;;1.70;;
34805;SDS011;65084;42.196;25.326;2023-02-03T01:24:33;2.90;;;2.22;;
34805;SDS011;65084;42.196;25.326;2023-02-03T01:27:01;4.28;;;1.90;;
34805;SDS011;65084;42.196;25.326;2023-02-03T01:29:28;4.32;;;2.17;;
34805;SDS011;65084;42.196;25.326;2023-02-03T01:31:55;2.33;;;2.10;;
34805;SDS011;65084;42.196;25.326;2023-02-03T01:34:23;3.58;;;1.83;;
34805;SDS011;65084;42.196;25.326;2023-02-03T01:36:50;2.40;;;1.77;;
34805;SDS011;65084;42.196;25.326;2023-02-03T01:39:19;2.85;;;2.10;;
34805;SDS011;65084;42.196;25.326;2023-02-03T01:41:46;3.80;;;2.28;;
34805;SDS011;65084;42.196;25.326;2023-02-03T01:46:59;3.70;;;2.55;;
34805;SDS011;65084;42.196;25.326;2023-02-03T01:49:28;5.28;;;2.78;;
34805;SDS011;65084;42.196;25.326;2023-02-03T01:51:56;3.75;;;2.60;;
34805;SDS011;65084;42.196;25.326;2023-02-03T01:54:25;4.32;;;3.03;;
34805;SDS011;65084;42.196;25.326;2023-02-03T01:56:54;3.33;;;2.03;;
34805;SDS011;65084;42.196;25.326;2023-02-03T01:59:22;3.25;;;2.95;;
34805;SDS011;65084;42.196;25.326;2023-02-03T02:01:50;3.72;;;3.05;;
34805;SDS011;65084;42.196;25.326;2023-02-03T02:04:19;3.42;;;3.03;;
34805;SDS011;65084;42.196;25.326;2023-02-03T02:06:46;5.05;;;3.28;;
34805;SDS011;65084;42.196;25.326;2023-02-03T02:09:15;6.18;;;3.25;;
34805;SDS011;65084;42.196;25.326;2023-02-03T02:11:44;4.30;;;3.08;;
34805;SDS011;65084;42.196;25.326;2023-02-03T02:14:11;4.40;;;3.30;;
34805;SDS011;65084;42.196;25.326;2023-02-03T02:16:40;3.75;;;2.83;;
34805;SDS011;65084;42.196;25.326;2023-02-03T02:19:23;4.35;;;3.08;;
34805;SDS011;65084;42.196;25.326;2023-02-03T02:22:02;4.22;;;3.13;;
34805;SDS011;65084;42.196;25.326;2023-02-03T02:24:46;6.22;;;3.72;;
34805;SDS011;65084;42.196;25.326;2023-02-03T02:27:22;3.05;;;2.55;;
34805;SDS011;65084;42.196;25.326;2023-02-03T02:32:42;6.00;;;3.08;;
34805;SDS011;65084;42.196;25.326;2023-02-03T02:35:13;4.45;;;3.33;;
34805;SDS011;65084;42.196;25.326;2023-02-03T02:37:44;3.58;;;3.25;;
34805;SDS011;65084;42.196;25.326;2023-02-03T02:40:15;2.78;;;2.58;;
34805;SDS011;65084;42.196;25.326;2023-02-03T02:42:49;6.85;;;2.90;;
34805;SDS011;65084;42.196;25.326;2023-02-03T02:45:20;4.82;;;3.35;;
34805;SDS011;65084;42.196;25.326;2023-02-03T02:47:51;2.53;;;2.33;;
34805;SDS011;65084;42.196;25.326;2023-02-03T02:50:20;4.95;;;2.95;;
34805;SDS011;65084;42.196;25.326;2023-02-03T02:52:49;3.58;;;2.92;;
34805;SDS011;65084;42.196;25.326;2023-02-03T02:55:18;5.25;;;3.13;;
34805;SDS011;65084;42.196;25.326;2023-02-03T02:57:48;6.10;;;3.00;;
34805;SDS011;65084;42.196;25.326;2023-02-03T03:00:17;5.15;;;3.13;;
34805;SDS011;65084;42.196;25.326;2023-02-03T03:02:44;3.90;;;2.80;;
34805;SDS011;65084;42.196;25.326;2023-02-03T03:05:13;3.95;;;2.90;;
34805;SDS011;65084;42.196;25.326;2023-02-03T03:07:43;4.50;;;2.95;;
34805;SDS011;65084;42.196;25.326;2023-02-03T03:10:12;4.43;;;3.10;;
34805;SDS011;65084;42.196;25.326;2023-02-03T03:12:41;3.63;;;2.67;;
34805;SDS011;65084;42.196;25.326;2023-02-03T03:15:14;3.20;;;2.72;;
34805;SDS011;65084;42.196;25.326;2023-02-03T03:20:14;4.13;;;3.22;;
34805;SDS011;65084;42.196;25.326;2023-02-03T03:22:43;8.95;;;2.47;;
34805;SDS011;65084;42.196;25.326;2023-02-03T03:25:13;3.67;;;2.75;;
34805;SDS011;65084;42.196;25.326;2023-02-03T03:27:42;5.05;;;3.10;;
34805;SDS011;65084;42.196;25.326;2023-02-03T03:30:13;3.30;;;2.35;;
34805;SDS011;65084;42.196;25.326;2023-02-03T03:32:41;5.95;;;3.03;;
34805;SDS011;65084;42.196;25.326;2023-02-03T03:35:09;3.58;;;2.47;;
34805;SDS011;65084;42.196;25.326;2023-02-03T03:37:40;4.80;;;3.75;;
34805;SDS011;65084;42.196;25.326;2023-02-03T03:40:08;5.68;;;3.70;;
34805;SDS011;65084;42.196;25.326;2023-02-03T03:42:37;3.50;;;3.20;;
34805;SDS011;65084;42.196;25.326;2023-02-03T03:45:09;4.70;;;3.92;;
34805;SDS011;65084;42.196;25.326;2023-02-03T03:47:38;5.95;;;2.67;;
34805;SDS011;65084;42.196;25.326;2023-02-03T03:50:09;2.85;;;2.55;;
34805;SDS011;65084;42.196;25.326;2023-02-03T03:52:38;3.30;;;2.83;;
34805;SDS011;65084;42.196;25.326;2023-02-03T03:55:07;3.22;;;2.58;;
34805;SDS011;65084;42.196;25.326;2023-02-03T03:57:36;4.57;;;2.80;;
34805;SDS011;65084;42.196;25.326;2023-02-03T04:00:06;7.53;;;3.10;;
34805;SDS011;65084;42.196;25.326;2023-02-03T04:02:34;5.07;;;3.30;;
34805;SDS011;65084;42.196;25.326;2023-02-03T04:05:02;5.10;;;3.35;;
34805;SDS011;65084;42.196;25.326;2023-02-03T04:07:36;6.07;;;4.10;;
34805;SDS011;65084;42.196;25.326;2023-02-03T04:10:06;6.55;;;4.20;;
34805;SDS011;65084;42.196;25.326;2023-02-03T04:12:38;7.38;;;3.70;;
34805;SDS011;65084;42.196;25.326;2023-02-03T04:15:06;5.28;;;4.03;;
34805;SDS011;65084;42.196;25.326;2023-02-03T04:17:33;7.95;;;4.43;;
34805;SDS011;65084;42.196;25.326;2023-02-03T04:20:01;8.43;;;4.85;;
34805;SDS011;65084;42.196;25.326;2023-02-03T04:22:28;8.00;;;5.85;;
34805;SDS011;65084;42.196;25.326;2023-02-03T04:24:56;26.10;;;11.32;;
34805;SDS011;65084;42.196;25.326;2023-02-03T04:27:25;23.85;;;11.15;;
34805;SDS011;65084;42.196;25.326;2023-02-03T04:29:52;14.93;;;7.10;;
34805;SDS011;65084;42.196;25.326;2023-02-03T04:32:20;28.63;;;6.55;;
34805;SDS011;65084;42.196;25.326;2023-02-03T04:34:47;15.60;;;7.78;;
34805;SDS011;65084;42.196;25.326;2023-02-03T04:37:14;5.38;;;4.22;;
34805;SDS011;65084;42.196;25.326;2023-02-03T04:39:41;6.78;;;4.60;;
34805;SDS011;65084;42.196;25.326;2023-02-03T04:42:09;8.95;;;6.53;;
34805;SDS011;65084;42.196;25.326;2023-02-03T04:44:37;8.15;;;4.53;;
34805;SDS011;65084;42.196;25.326;2023-02-03T04:47:05;4.82;;;4.28;;
34805;SDS011;65084;42.196;25.326;2023-02-03T04:49:32;5.97;;;4.30;;
34805;SDS011;65084;42.196;25.326;2023-02-03T04:51:59;7.68;;;4.15;;
34805;SDS011;65084;42.196;25.326;2023-02-03T04:54:26;5.95;;;3.47;;
34805;SDS011;65084;42.196;25.326;2023-02-03T04:56:54;4.15;;;3.20;;
34805;SDS011;65084;42.196;25.326;2023-02-03T04:59:21;8.73;;;4.22;;
34805;SDS011;65084;42.196;25.326;2023-02-03T05:01:50;6.22;;;4.10;;
34805;SDS011;65084;42.196;25.326;2023-02-03T05:04:17;5.63;;;3.95;;
34805;SDS011;65084;42.196;25.326;2023-02-03T05:06:44;6.20;;;4.75;;
34805;SDS011;65084;42.196;25.326;2023-02-03T05:09:12;12.00;;;4.68;;
34805;SDS011;65084;42.196;25.326;2023-02-03T05:11:39;8.43;;;5.25;;
34805;SDS011;65084;42.196;25.326;2023-02-03T05:14:06;8.07;;;5.93;;
34805;SDS011;65084;42.196;25.326;2023-02-03T05:16:33;6.03;;;5.00;;
34805;SDS011;65084;42.196;25.326;2023-02-03T05:19:02;5.95;;;4.40;;
34805;SDS011;65084;42.196;25.326;2023-02-03T05:21:29;5.75;;;3.50;;
34805;SDS011;65084;42.196;25.326;2023-02-03T05:23:57;5.30;;;3.85;;
34805;SDS011;65084;42.196;25.326;2023-02-03T05:26:24;4.95;;;3.92;;
34805;SDS011;65084;42.196;25.326;2023-02-03T05:28:51;4.90;;;3.95;;
34805;SDS011;65084;42.196;25.326;2023-02-03T05:31:19;5.88;;;4.60;;
34805;SDS011;65084;42.196;25.326;2023-02-03T05:33:46;6.53;;;4.90;;
34805;SDS011;65084;42.196;25.326;2023-02-03T05:36:15;9.43;;;4.15;;
34805;SDS011;65084;42.196;25.326;2023-02-03T05:38:42;7.30;;;4.53;;
34805;SDS011;65084;42.196;25.326;2023-02-03T05:41:09;12.35;;;5.82;;
34805;SDS011;65084;42.196;25.326;2023-02-03T05:43:55;11.88;;;7.25;;
34805;SDS011;65084;42.196;25.326;2023-02-03T05:46:22;16.35;;;7.72;;
34805;SDS011;65084;42.196;25.326;2023-02-03T05:48:50;12.50;;;7.38;;
34805;SDS011;65084;42.196;25.326;2023-02-03T05:51:18;7.45;;;5.22;;
34805;SDS011;65084;42.196;25.326;2023-02-03T05:53:46;36.38;;;15.15;;
34805;SDS011;65084;42.196;25.326;2023-02-03T05:56:13;69.97;;;23.85;;
34805;SDS011;65084;42.196;25.326;2023-02-03T05:58:40;31.20;;;13.57;;
34805;SDS011;65084;42.196;25.326;2023-02-03T06:01:07;17.60;;;9.20;;
34805;SDS011;65084;42.196;25.326;2023-02-03T06:03:35;9.10;;;6.38;;
34805;SDS011;65084;42.196;25.326;2023-02-03T06:06:03;7.07;;;5.13;;
34805;SDS011;65084;42.196;25.326;2023-02-03T06:08:31;14.23;;;6.18;;
34805;SDS011;65084;42.196;25.326;2023-02-03T06:10:59;8.15;;;5.88;;
34805;SDS011;65084;42.196;25.326;2023-02-03T06:13:26;9.27;;;5.05;;
34805;SDS011;65084;42.196;25.326;2023-02-03T06:15:53;9.60;;;4.80;;
34805;SDS011;65084;42.196;25.326;2023-02-03T06:18:20;7.53;;;4.75;;
34805;SDS011;65084;42.196;25.326;2023-02-03T06:20:48;8.20;;;5.28;;
34805;SDS011;65084;42.196;25.326;2023-02-03T06:23:16;11.90;;;6.20;;
34805;SDS011;65084;42.196;25.326;2023-02-03T06:25:46;14.90;;;7.78;;
34805;SDS011;65084;42.196;25.326;2023-02-03T06:28:14;15.32;;;8.02;;
34805;SDS011;65084;42.196;25.326;2023-02-03T06:30:42;14.68;;;7.07;;
34805;SDS011;65084;42.196;25.326;2023-02-03T06:33:09;10.90;;;6.07;;
34805;SDS011;65084;42.196;25.326;2023-02-03T06:35:36;12.60;;;7.22;;
34805;SDS011;65084;42.196;25.326;2023-02-03T06:38:04;21.00;;;8.98;;
34805;SDS011;65084;42.196;25.326;2023-02-03T06:40:31;20.35;;;9.07;;
34805;SDS011;65084;42.196;25.326;2023-02-03T06:42:59;20.98;;;9.60;;
34805;SDS011;65084;42.196;25.326;2023-02-03T06:45:27;23.77;;;12.27;;
34805;SDS011;65084;42.196;25.326;2023-02-03T06:47:54;44.72;;;17.77;;
34805;SDS011;65084;42.196;25.326;2023-02-03T06:50:21;36.92;;;17.00;;
34805;SDS011;65084;42.196;25.326;2023-02-03T06:52:49;40.35;;;15.25;;
34805;SDS011;65084;42.196;25.326;2023-02-03T06:55:16;41.60;;;14.82;;
34805;SDS011;65084;42.196;25.326;2023-02-03T06:57:44;41.05;;;17.23;;
34805;SDS011;65084;42.196;25.326;2023-02-03T07:00:13;41.58;;;18.38;;
34805;SDS011;65084;42.196;25.326;2023-02-03T07:02:41;54.67;;;23.73;;
34805;SDS011;65084;42.196;25.326;2023-02-03T07:05:08;66.03;;;28.67;;
34805;SDS011;65084;42.196;25.326;2023-02-03T07:07:35;60.40;;;29.83;;
34805;SDS011;65084;42.196;25.326;2023-02-03T07:10:04;75.43;;;36.83;;
34805;SDS011;65084;42.196;25.326;2023-02-03T07:12:31;56.17;;;27.30;;
34805;SDS011;65084;42.196;25.326;2023-02-03T07:15:00;47.40;;;20.58;;
34805;SDS011;65084;42.196;25.326;2023-02-03T07:17:29;38.20;;;18.50;;
34805;SDS011;65084;42.196;25.326;2023-02-03T07:19:56;40.85;;;18.02;;
34805;SDS011;65084;42.196;25.326;2023-02-03T07:22:24;43.92;;;19.17;;
34805;SDS011;65084;42.196;25.326;2023-02-03T07:24:51;35.10;;;17.17;;
34805;SDS011;65084;42.196;25.326;2023-02-03T07:27:18;24.67;;;12.75;;
34805;SDS011;65084;42.196;25.326;2023-02-03T07:29:45;18.35;;;8.95;;
34805;SDS011;65084;42.196;25.326;2023-02-03T07:32:13;13.00;;;6.68;;
34805;SDS011;65084;42.196;25.326;2023-02-03T07:34:42;11.02;;;6.05;;
34805;SDS011;65084;42.196;25.326;2023-02-03T07:37:09;13.55;;;5.97;;
34805;SDS011;65084;42.196;25.326;2023-02-03T07:39:36;10.80;;;6.95;;
34805;SDS011;65084;42.196;25.326;2023-02-03T07:42:03;13.15;;;7.93;;
34805;SDS011;65084;42.196;25.326;2023-02-03T07:44:31;7.63;;;6.25;;
34805;SDS011;65084;42.196;25.326;2023-02-03T07:46:58;9.27;;;5.47;;
34805;SDS011;65084;42.196;25.326;2023-02-03T07:49:25;12.13;;;8.52;;
34805;SDS011;65084;42.196;25.326;2023-02-03T07:51:54;8.95;;;6.20;;
34805;SDS011;65084;42.196;25.326;2023-02-03T07:54:21;9.45;;;6.50;;
34805;SDS011;65084;42.196;25.326;2023-02-03T07:56:49;11.52;;;6.10;;
34805;SDS011;65084;42.196;25.326;2023-02-03T07:59:16;10.52;;;7.55;;
34805;SDS011;65084;42.196;25.326;2023-02-03T08:01:43;11.43;;;6.55;;
34805;SDS011;65084;42.196;25.326;2023-02-03T08:04:10;7.40;;;4.70;;
34805;SDS011;65084;42.196;25.326;2023-02-03T08:06:40;8.85;;;6.35;;
34805;SDS011;65084;42.196;25.326;2023-02-03T08:09:09;10.25;;;6.95;;
34805;SDS011;65084;42.196;25.326;2023-02-03T08:11:36;5.55;;;4.70;;
34805;SDS011;65084;42.196;25.326;2023-02-03T08:14:03;5.97;;;3.80;;
34805;SDS011;65084;42.196;25.326;2023-02-03T08:16:31;4.75;;;3.47;;
34805;SDS011;65084;42.196;25.326;2023-02-03T08:18:58;5.13;;;4.38;;
34805;SDS011;65084;42.196;25.326;2023-02-03T08:21:25;4.60;;;3.58;;
34805;SDS011;65084;42.196;25.326;2023-02-03T08:23:52;5.70;;;3.20;;
34805;SDS011;65084;42.196;25.326;2023-02-03T08:26:21;4.05;;;3.20;;
34805;SDS011;65084;42.196;25.326;2023-02-03T08:28:48;4.57;;;3.20;;
34805;SDS011;65084;42.196;25.326;2023-02-03T08:31:16;3.78;;;2.85;;
34805;SDS011;65084;42.196;25.326;2023-02-03T08:33:43;4.32;;;3.10;;
34805;SDS011;65084;42.196;25.326;2023-02-03T08:36:10;7.70;;;3.08;;
34805;SDS011;65084;42.196;25.326;2023-02-03T08:38:38;3.25;;;2.90;;
34805;SDS011;65084;42.196;25.326;2023-02-03T08:41:09;3.63;;;3.30;;
34805;SDS011;65084;42.196;25.326;2023-02-03T08:43:38;4.40;;;3.97;;
34805;SDS011;65084;42.196;25.326;2023-02-03T08:46:06;4.78;;;3.63;;
34805;SDS011;65084;42.196;25.326;2023-02-03T08:48:33;5.68;;;3.78;;
34805;SDS011;65084;42.196;25.326;2023-02-03T08:51:01;8.95;;;3.90;;
34805;SDS011;65084;42.196;25.326;2023-02-03T08:53:28;13.95;;;3.92;;
34805;SDS011;65084;42.196;25.326;2023-02-03T08:55:55;9.23;;;3.97;;
34805;SDS011;65084;42.196;25.326;2023-02-03T08:58:22;10.10;;;5.10;;
34805;SDS011;65084;42.196;25.326;2023-02-03T09:00:51;11.68;;;4.43;;
34805;SDS011;65084;42.196;25.326;2023-02-03T09:03:19;8.90;;;6.20;;
34805;SDS011;65084;42.196;25.326;2023-02-03T09:05:46;8.57;;;4.75;;
34805;SDS011;65084;42.196;25.326;2023-02-03T09:08:14;7.45;;;2.45;;
34805;SDS011;65084;42.196;25.326;2023-02-03T09:10:41;4.82;;;3.15;;
34805;SDS011;65084;42.196;25.326;2023-02-03T09:13:08;10.95;;;5.70;;
34805;SDS011;65084;42.196;25.326;2023-02-03T09:15:35;6.75;;;4.25;;
34805;SDS011;65084;42.196;25.326;2023-02-03T09:18:04;12.02;;;6.68;;
34805;SDS011;65084;42.196;25.326;2023-02-03T09:20:31;11.02;;;5.95;;
34805;SDS011;65084;42.196;25.326;2023-02-03T09:22:59;7.82;;;5.35;;
34805;SDS011;65084;42.196;25.326;2023-02-03T09:25:26;4.70;;;3.20;;
34805;SDS011;65084;42.196;25.326;2023-02-03T09:27:53;8.55;;;4.65;;
34805;SDS011;65084;42.196;25.326;2023-02-03T09:30:20;5.57;;;3.80;;
34805;SDS011;65084;42.196;25.326;2023-02-03T09:32:51;5.88;;;3.75;;
34805;SDS011;65084;42.196;25.326;2023-02-03T09:38:13;3.40;;;3.10;;
34805;SDS011;65084;42.196;25.326;2023-02-03T09:40:41;13.80;;;4.60;;
34805;SDS011;65084;42.196;25.326;2023-02-03T09:43:13;5.90;;;4.00;;
34805;SDS011;65084;42.196;25.326;2023-02-03T09:45:41;2.88;;;2.00;;
34805;SDS011;65084;42.196;25.326;2023-02-03T09:48:10;12.45;;;5.22;;
34805;SDS011;65084;42.196;25.326;2023-02-03T09:50:37;10.85;;;6.53;;
34805;SDS011;65084;42.196;25.326;2023-02-03T09:53:10;5.70;;;3.80;;
34805;SDS011;65084;42.196;25.326;2023-02-03T09:55:39;4.80;;;3.30;;
34805;SDS011;65084;42.196;25.326;2023-02-03T09:58:08;3.10;;;2.10;;
34805;SDS011;65084;42.196;25.326;2023-02-03T10:00:39;2.63;;;2.00;;
34805;SDS011;65084;42.196;25.326;2023-02-03T10:03:11;4.72;;;2.05;;
34805;SDS011;65084;42.196;25.326;2023-02-03T10:05:47;2.10;;;1.73;;
34805;SDS011;65084;42.196;25.326;2023-02-03T10:08:18;2.33;;;2.03;;
34805;SDS011;65084;42.196;25.326;2023-02-03T10:10:52;7.00;;;4.30;;
34805;SDS011;65084;42.196;25.326;2023-02-03T10:13:34;18.23;;;5.55;;
34805;SDS011;65084;42.196;25.326;2023-02-03T10:18:47;8.10;;;3.53;;
34805;SDS011;65084;42.196;25.326;2023-02-03T10:21:18;3.25;;;2.60;;
34805;SDS011;65084;42.196;25.326;2023-02-03T10:23:47;5.90;;;2.80;;
34805;SDS011;65084;42.196;25.326;2023-02-03T10:26:17;6.57;;;3.03;;
34805;SDS011;65084;42.196;25.326;2023-02-03T10:28:47;1.70;;;1.60;;
34805;SDS011;65084;42.196;25.326;2023-02-03T10:31:17;1.20;;;1.10;;
34805;SDS011;65084;42.196;25.326;2023-02-03T10:33:45;5.65;;;2.70;;
34805;SDS011;65084;42.196;25.326;2023-02-03T10:36:14;5.10;;;3.47;;
34805;SDS011;65084;42.196;25.326;2023-02-03T10:38:46;4.22;;;3.22;;
34805;SDS011;65084;42.196;25.326;2023-02-03T10:41:17;4.32;;;2.50;;
34805;SDS011;65084;42.196;25.326;2023-02-03T10:43:44;3.58;;;1.70;;
34805;SDS011;65084;42.196;25.326;2023-02-03T10:46:17;2.08;;;1.27;;
34805;SDS011;65084;42.196;25.326;2023-02-03T10:48:44;4.32;;;1.42;;
34805;SDS011;65084;42.196;25.326;2023-02-03T10:51:14;8.10;;;4.13;;
34805;SDS011;65084;42.196;25.326;2023-02-03T10:53:44;6.25;;;2.13;;
34805;SDS011;65084;42.196;25.326;2023-02-03T10:56:12;12.15;;;3.80;;
34805;SDS011;65084;42.196;25.326;2023-02-03T10:58:46;4.32;;;3.03;;
34805;SDS011;65084;42.196;25.326;2023-02-03T11:01:15;13.23;;;3.67;;
34805;SDS011;65084;42.196;25.326;2023-02-03T11:03:43;3.63;;;3.00;;
34805;SDS011;65084;42.196;25.326;2023-02-03T11:06:19;6.60;;;2.33;;
34805;SDS011;65084;42.196;25.326;2023-02-03T11:08:47;3.03;;;2.47;;
34805;SDS011;65084;42.196;25.326;2023-02-03T11:11:18;4.05;;;2.63;;
34805;SDS011;65084;42.196;25.326;2023-02-03T11:13:48;2.65;;;2.42;;
34805;SDS011;65084;42.196;25.326;2023-02-03T11:16:18;6.28;;;3.55;;
34805;SDS011;65084;42.196;25.326;2023-02-03T11:18:47;7.78;;;4.72;;
34805;SDS011;65084;42.196;25.326;2023-02-03T11:21:17;6.05;;;3.95;;
34805;SDS011;65084;42.196;25.326;2023-02-03T11:23:47;4.60;;;3.17;;
34805;SDS011;65084;42.196;25.326;2023-02-03T11:26:17;9.73;;;4.60;;
34805;SDS011;65084;42.196;25.326;2023-02-03T11:28:45;8.20;;;4.82;;
34805;SDS011;65084;42.196;25.326;2023-02-03T11:31:19;7.65;;;3.88;;
34805;SDS011;65084;42.196;25.326;2023-02-03T11:33:48;6.45;;;4.40;;
34805;SDS011;65084;42.196;25.326;2023-02-03T11:36:16;5.82;;;2.90;;
34805;SDS011;65084;42.196;25.326;2023-02-03T11:38:44;6.80;;;3.00;;
34805;SDS011;65084;42.196;25.326;2023-02-03T11:41:15;2.15;;;1.40;;
34805;SDS011;65084;42.196;25.326;2023-02-03T11:43:42;9.70;;;4.53;;
34805;SDS011;65084;42.196;25.326;2023-02-03T11:46:10;11.32;;;4.65;;
34805;SDS011;65084;42.196;25.326;2023-02-03T11:48:40;2.58;;;2.38;;
34805;SDS011;65084;42.196;25.326;2023-02-03T11:51:12;7.63;;;3.95;;
34805;SDS011;65084;42.196;25.326;2023-02-03T11:56:28;9.38;;;4.45;;
34805;SDS011;65084;42.196;25.326;2023-02-03T11:59:00;5.05;;;3.30;;
34805;SDS011;65084;42.196;25.326;2023-02-03T12:01:39;6.75;;;3.95;;
34805;SDS011;65084;42.196;25.326;2023-02-03T12:07:08;2.60;;;2.30;;
34805;SDS011;65084;42.196;25.326;2023-02-03T12:09:43;3.20;;;2.15;;
34805;SDS011;65084;42.196;25.326;2023-02-03T12:12:23;1.65;;;1.30;;
34805;SDS011;65084;42.196;25.326;2023-02-03T12:14:55;4.70;;;2.03;;
34805;SDS011;65084;42.196;25.326;2023-02-03T12:17:32;4.30;;;3.25;;
34805;SDS011;65084;42.196;25.326;2023-02-03T12:20:12;47.72;;;21.92;;
34805;SDS011;65084;42.196;25.326;2023-02-03T12:22:48;3.25;;;2.85;;
34805;SDS011;65084;42.196;25.326;2023-02-03T12:25:24;32.92;;;14.30;;
34805;SDS011;65084;42.196;25.326;2023-02-03T12:27:54;14.13;;;7.45;;
34805;SDS011;65084;42.196;25.326;2023-02-03T12:30:25;2.78;;;2.50;;
34805;SDS011;65084;42.196;25.326;2023-02-03T12:32:54;2.95;;;1.85;;
34805;SDS011;65084;42.196;25.326;2023-02-03T12:35:24;4.78;;;3.28;;
34805;SDS011;65084;42.196;25.326;2023-02-03T12:37:55;8.38;;;4.55;;
34805;SDS011;65084;42.196;25.326;2023-02-03T12:40:27;12.48;;;8.27;;
34805;SDS011;65084;42.196;25.326;2023-02-03T12:42:57;42.15;;;23.65;;
34805;SDS011;65084;42.196;25.326;2023-02-03T12:45:27;27.15;;;12.05;;
34805;SDS011;65084;42.196;25.326;2023-02-03T12:47:55;4.75;;;3.45;;
34805;SDS011;65084;42.196;25.326;2023-02-03T12:50:26;8.70;;;5.30;;
34805;SDS011;65084;42.196;25.326;2023-02-03T12:52:57;3.55;;;3.22;;
34805;SDS011;65084;42.196;25.326;2023-02-03T12:55:27;8.27;;;7.45;;
34805;SDS011;65084;42.196;25.326;2023-02-03T12:57:59;10.30;;;4.50;;
34805;SDS011;65084;42.196;25.326;2023-02-03T13:00:33;10.63;;;8.32;;
34805;SDS011;65084;42.196;25.326;2023-02-03T13:03:05;6.65;;;3.40;;
34805;SDS011;65084;42.196;25.326;2023-02-03T13:05:35;5.65;;;4.10;;
34805;SDS011;65084;42.196;25.326;2023-02-03T13:08:08;4.03;;;3.17;;
34805;SDS011;65084;42.196;25.326;2023-02-03T13:10:37;6.85;;;3.30;;
34805;SDS011;65084;42.196;25.326;2023-02-03T13:13:08;3.85;;;3.22;;
34805;SDS011;65084;42.196;25.326;2023-02-03T13:15:38;3.63;;;2.50;;
34805;SDS011;65084;42.196;25.326;2023-02-03T13:18:08;3.92;;;3.63;;
34805;SDS011;65084;42.196;25.326;2023-02-03T13:20:39;3.25;;;2.80;;
34805;SDS011;65084;42.196;25.326;2023-02-03T13:23:09;4.80;;;2.38;;
34805;SDS011;65084;42.196;25.326;2023-02-03T13:25:41;2.45;;;2.15;;
34805;SDS011;65084;42.196;25.326;2023-02-03T13:28:13;2.50;;;1.98;;
34805;SDS011;65084;42.196;25.326;2023-02-03T13:30:46;3.90;;;1.75;;
34805;SDS011;65084;42.196;25.326;2023-02-03T13:33:26;4.13;;;1.90;;
34805;SDS011;65084;42.196;25.326;2023-02-03T13:35:57;2.63;;;2.42;;
34805;SDS011;65084;42.196;25.326;2023-02-03T13:38:37;3.22;;;2.50;;
34805;SDS011;65084;42.196;25.326;2023-02-03T13:41:14;5.15;;;4.38;;
34805;SDS011;65084;42.196;25.326;2023-02-03T13:43:44;9.27;;;6.25;;
34805;SDS011;65084;42.196;25.326;2023-02-03T13:46:17;8.00;;;6.35;;
34805;SDS011;65084;42.196;25.326;2023-02-03T13:48:46;6.72;;;5.13;;
34805;SDS011;65084;42.196;25.326;2023-02-03T13:51:14;7.20;;;4.10;;
34805;SDS011;65084;42.196;25.326;2023-02-03T13:53:43;6.25;;;5.15;;
34805;SDS011;65084;42.196;25.326;2023-02-03T13:56:15;3.92;;;3.50;;
34805;SDS011;65084;42.196;25.326;2023-02-03T13:58:57;8.57;;;6.53;;
34805;SDS011;65084;42.196;25.326;2023-02-03T14:01:29;10.38;;;6.18;;
34805;SDS011;65084;42.196;25.326;2023-02-03T14:03:58;14.57;;;9.10;;
34805;SDS011;65084;42.196;25.326;2023-02-03T14:09:21;10.70;;;6.75;;
34805;SDS011;65084;42.196;25.326;2023-02-03T14:11:49;15.00;;;7.25;;
34805;SDS011;65084;42.196;25.326;2023-02-03T14:17:03;23.38;;;10.68;;
34805;SDS011;65084;42.196;25.326;2023-02-03T14:22:18;11.82;;;6.65;;
34805;SDS011;65084;42.196;25.326;2023-02-03T14:24:47;57.92;;;26.65;;
34805;SDS011;65084;42.196;25.326;2023-02-03T14:27:16;32.15;;;16.17;;
34805;SDS011;65084;42.196;25.326;2023-02-03T14:29:44;26.33;;;14.00;;
34805;SDS011;65084;42.196;25.326;2023-02-03T14:32:12;22.25;;;12.10;;
34805;SDS011;65084;42.196;25.326;2023-02-03T14:34:39;21.90;;;15.25;;
34805;SDS011;65084;42.196;25.326;2023-02-03T14:37:11;12.07;;;8.57;;
34805;SDS011;65084;42.196;25.326;2023-02-03T14:45:18;43.20;;;24.77;;
34805;SDS011;65084;42.196;25.326;2023-02-03T14:47:53;48.13;;;24.73;;
34805;SDS011;65084;42.196;25.326;2023-02-03T14:50:31;40.00;;;19.63;;
34805;SDS011;65084;42.196;25.326;2023-02-03T14:53:08;30.00;;;17.05;;
34805;SDS011;65084;42.196;25.326;2023-02-03T14:55:42;20.58;;;11.77;;
34805;SDS011;65084;42.196;25.326;2023-02-03T14:58:19;37.35;;;13.15;;
34805;SDS011;65084;42.196;25.326;2023-02-03T15:00:50;20.80;;;10.13;;
34805;SDS011;65084;42.196;25.326;2023-02-03T15:03:20;15.10;;;8.93;;
34805;SDS011;65084;42.196;25.326;2023-02-03T15:05:50;31.48;;;14.77;;
34805;SDS011;65084;42.196;25.326;2023-02-03T15:08:34;42.90;;;23.15;;
34805;SDS011;65084;42.196;25.326;2023-02-03T15:13:56;38.13;;;18.73;;
34805;SDS011;65084;42.196;25.326;2023-02-03T15:16:25;56.40;;;24.55;;